^^
Saratoga-Weather Station Historical Data
Daily Summary for May 17, 2020 Units:  Both    English   Metric
Daily Weekly Monthly Yearly Custom
  High: Low: Average:
Temperature: 67.6 °F /  19.8 °C 55.9 °F /  13.3 °C 59.7 °F /  15.4 °C
Dew Point: 62.2 °F /  16.8 °C 54.5 °F /  12.5 °C 57.6 °F /  14.2 °C
Humidity: 97% 80% 93%
Wind Speed: 12mph /  19.3km/h - 1.8mph /  2.9km/h
Wind Gust: 15mph /  24.1km/h - -
Wind- - SW
Pressure: 29.9 in /  1012.9 hPa 29.8 in /  1010.2 hPa -
Precipitation: 0.55 in /  14.0 mm    
Historical Graphs
 
 
Tabular Data for May 17, 2020
Time Temperature Dew Point Pressure Wind Wind Speed Wind Gust Humidity Rainfall Rate (Hourly) solar
00:02 58.5 °F /  14.7 °C 57 °F /  13.9 °C 29.9in /  1012.5hPa Calm     95% 0in /  0.0mm 0 W/m2
00:07 58.3 °F /  14.6 °C 56.8 °F /  13.8 °C 29.9in /  1012.5hPa Calm     95% 0in /  0.0mm 0 W/m2
00:12 58.3 °F /  14.6 °C 56.8 °F /  13.8 °C 29.9in /  1012.9hPa Calm     95% 0in /  0.0mm 0 W/m2
00:17 58.3 °F /  14.6 °C 56.8 °F /  13.8 °C 29.9in /  1012.5hPa Calm     95% 0in /  0.0mm 0 W/m2
00:22 58.1 °F /  14.5 °C 56.7 °F /  13.7 °C 29.9in /  1012.9hPa Calm     95% 0in /  0.0mm 0 W/m2
00:27 57.9 °F /  14.4 °C 56.5 °F /  13.6 °C 29.9in /  1012.9hPa Calm     95% 0in /  0.0mm 0 W/m2
00:32 57.9 °F /  14.4 °C 56.5 °F /  13.6 °C 29.9in /  1012.9hPa Calm     95% 0in /  0.0mm 0 W/m2
00:37 57.9 °F /  14.4 °C 56.5 °F /  13.6 °C 29.9in /  1012.9hPa Calm     95% 0in /  0.0mm 0 W/m2
00:42 57.9 °F /  14.4 °C 56.8 °F /  13.8 °C 29.9in /  1012.9hPa Calm     96% 0in /  0.0mm 0 W/m2
00:47 58.1 °F /  14.5 °C 56.7 °F /  13.7 °C 29.9in /  1012.9hPa Calm     95% 0in /  0.0mm 0 W/m2
00:52 58.1 °F /  14.5 °C 57 °F /  13.9 °C 29.9in /  1012.9hPa Calm     96% 0in /  0.0mm 0 W/m2
00:57 58.3 °F /  14.6 °C 57.2 °F /  14 °C 29.9in /  1012.9hPa Calm   1mph /  1.6km/h 96% 0in /  0.0mm 0 W/m2
01:02 58.1 °F /  14.5 °C 57 °F /  13.9 °C 29.9in /  1012.9hPa Calm     96% 0in /  0.0mm 0 W/m2
01:07 57.9 °F /  14.4 °C 56.8 °F /  13.8 °C 29.9in /  1012.9hPa Calm   1mph /  1.6km/h 96% 0in /  0.0mm 0 W/m2
01:12 57.7 °F /  14.3 °C 56.3 °F /  13.5 °C 29.9in /  1012.5hPa Calm     95% 0in /  0.0mm 0 W/m2
01:17 57.6 °F /  14.2 °C 56.1 °F /  13.4 °C 29.9in /  1012.5hPa Calm     95% 0in /  0.0mm 0 W/m2
01:22 57.4 °F /  14.1 °C 55.9 °F /  13.3 °C 29.9in /  1012.5hPa Calm     95% 0in /  0.0mm 0 W/m2
01:27 57.2 °F /  14 °C 56.1 °F /  13.4 °C 29.9in /  1012.5hPa Calm     96% 0in /  0.0mm 0 W/m2
01:32 57.2 °F /  14 °C 56.1 °F /  13.4 °C 29.9in /  1012.5hPa Calm     96% 0in /  0.0mm 0 W/m2
01:37 57.2 °F /  14 °C 56.1 °F /  13.4 °C 29.9in /  1012.5hPa Calm     96% 0in /  0.0mm 0 W/m2
01:42 57 °F /  13.9 °C 55.9 °F /  13.3 °C 29.9in /  1012.5hPa Calm     96% 0in /  0.0mm 0 W/m2
01:47 56.8 °F /  13.8 °C 55.8 °F /  13.2 °C 29.9in /  1012.5hPa Calm     96% 0in /  0.0mm 0 W/m2
01:52 56.8 °F /  13.8 °C 55.8 °F /  13.2 °C 29.9in /  1012.5hPa Calm     96% 0in /  0.0mm 0 W/m2
01:57 56.8 °F /  13.8 °C 55.8 °F /  13.2 °C 29.9in /  1012.5hPa Calm   1mph /  1.6km/h 96% 0in /  0.0mm 0 W/m2
02:02 56.8 °F /  13.8 °C 55.8 °F /  13.2 °C 29.9in /  1012.5hPa Calm     96% 0in /  0.0mm 0 W/m2
02:07 56.8 °F /  13.8 °C 55.8 °F /  13.2 °C 29.9in /  1012.5hPa Calm   1mph /  1.6km/h 96% 0in /  0.0mm 0 W/m2
02:12 56.7 °F /  13.7 °C 55.6 °F /  13.1 °C 29.9in /  1012.5hPa Calm     96% 0in /  0.0mm 0 W/m2
02:17 56.7 °F /  13.7 °C 55.6 °F /  13.1 °C 29.9in /  1012.2hPa Calm     96% 0in /  0.0mm 0 W/m2
02:22 56.5 °F /  13.6 °C 55.4 °F /  13 °C 29.9in /  1012.2hPa Calm     96% 0in /  0.0mm 0 W/m2
02:27 56.7 °F /  13.7 °C 55.6 °F /  13.1 °C 29.9in /  1012.5hPa Calm     96% 0in /  0.0mm 0 W/m2
02:32 56.7 °F /  13.7 °C 55.6 °F /  13.1 °C 29.9in /  1012.5hPa WNW 0.9mph /  1.4km/h 1mph /  1.6km/h 96% 0in /  0.0mm 0 W/m2
02:37 56.8 °F /  13.8 °C 55.8 °F /  13.2 °C 29.9in /  1012.2hPa WNW 0.9mph /  1.4km/h 1mph /  1.6km/h 96% 0in /  0.0mm 0 W/m2
02:43 56.8 °F /  13.8 °C 55.8 °F /  13.2 °C 29.9in /  1012.2hPa Calm     96% 0in /  0.0mm 0 W/m2
02:48 57 °F /  13.9 °C 55.9 °F /  13.3 °C 29.9in /  1012.2hPa Calm     96% 0in /  0.0mm 0 W/m2
02:53 57 °F /  13.9 °C 55.9 °F /  13.3 °C 29.9in /  1012.2hPa WNW 0.9mph /  1.4km/h 1mph /  1.6km/h 96% 0in /  0.0mm 0 W/m2
02:58 57 °F /  13.9 °C 55.9 °F /  13.3 °C 29.9in /  1011.9hPa Calm     96% 0in /  0.0mm 0 W/m2
03:03 57.2 °F /  14 °C 56.1 °F /  13.4 °C 29.9in /  1011.9hPa Calm     96% 0in /  0.0mm 0 W/m2
03:08 57.4 °F /  14.1 °C 56.3 °F /  13.5 °C 29.9in /  1011.9hPa Calm     96% 0in /  0.0mm 0 W/m2
03:13 57.4 °F /  14.1 °C 56.3 °F /  13.5 °C 29.9in /  1011.9hPa Calm     96% 0in /  0.0mm 0 W/m2
03:18 57.4 °F /  14.1 °C 56.3 °F /  13.5 °C 29.9in /  1011.9hPa Calm     96% 0in /  0.0mm 0 W/m2
03:23 57.2 °F /  14 °C 56.1 °F /  13.4 °C 29.9in /  1011.9hPa Calm   1mph /  1.6km/h 96% 0in /  0.0mm 0 W/m2
03:28 57.2 °F /  14 °C 56.1 °F /  13.4 °C 29.9in /  1011.9hPa Calm     96% 0in /  0.0mm 0 W/m2
03:33 57.2 °F /  14 °C 56.1 °F /  13.4 °C 29.9in /  1011.9hPa Calm     96% 0in /  0.0mm 0 W/m2
03:38 57 °F /  13.9 °C 55.9 °F /  13.3 °C 29.9in /  1011.9hPa Calm     96% 0in /  0.0mm 0 W/m2
03:43 57 °F /  13.9 °C 55.9 °F /  13.3 °C 29.9in /  1011.9hPa Calm     96% 0in /  0.0mm 0 W/m2
03:48 57 °F /  13.9 °C 55.9 °F /  13.3 °C 29.9in /  1011.5hPa Calm     96% 0in /  0.0mm 0 W/m2
03:53 57 °F /  13.9 °C 55.9 °F /  13.3 °C 29.9in /  1011.5hPa Calm     96% 0in /  0.0mm 0 W/m2
03:58 57 °F /  13.9 °C 55.9 °F /  13.3 °C 29.9in /  1011.5hPa Calm     96% 0in /  0.0mm 0 W/m2
04:03 57 °F /  13.9 °C 56.1 °F /  13.4 °C 29.9in /  1011.5hPa WNW 0.9mph /  1.4km/h 2mph /  3.2km/h 97% 0in /  0.0mm 0 W/m2
04:08 57 °F /  13.9 °C 56.1 °F /  13.4 °C 29.9in /  1011.5hPa Calm     97% 0in /  0.0mm 0 W/m2
04:13 57 °F /  13.9 °C 56.1 °F /  13.4 °C 29.9in /  1011.2hPa Calm   2mph /  3.2km/h 97% 0in /  0.0mm 0 W/m2
04:18 57 °F /  13.9 °C 56.1 °F /  13.4 °C 29.9in /  1011.2hPa Calm     97% 0in /  0.0mm 0 W/m2
04:23 57 °F /  13.9 °C 56.1 °F /  13.4 °C 29.9in /  1011.2hPa Calm     97% 0in /  0.0mm 0 W/m2
04:28 57 °F /  13.9 °C 56.1 °F /  13.4 °C 29.9in /  1011.2hPa Calm     97% 0in /  0.0mm 0 W/m2
04:33 56.8 °F /  13.8 °C 55.9 °F /  13.3 °C 29.9in /  1011.2hPa Calm   2mph /  3.2km/h 97% 0in /  0.0mm 0 W/m2
04:38 56.8 °F /  13.8 °C 55.9 °F /  13.3 °C 29.9in /  1011.2hPa Calm     97% 0in /  0.0mm 0 W/m2
04:43 56.8 °F /  13.8 °C 55.9 °F /  13.3 °C 29.9in /  1011.2hPa Calm   2mph /  3.2km/h 97% 0in /  0.0mm 0 W/m2
04:48 56.8 °F /  13.8 °C 55.9 °F /  13.3 °C 29.9in /  1011.2hPa Calm     97% 0in /  0.0mm 0 W/m2
04:53 56.8 °F /  13.8 °C 55.9 °F /  13.3 °C 29.9in /  1011.2hPa Calm     97% 0in /  0.0mm 0 W/m2
04:58 56.7 °F /  13.7 °C 55.8 °F /  13.2 °C 29.9in /  1010.8hPa Calm     97% 0in /  0.0mm 0 W/m2
05:03 56.7 °F /  13.7 °C 55.6 °F /  13.1 °C 29.9in /  1010.8hPa Calm     96% 0in /  0.0mm 0 W/m2
05:08 56.5 °F /  13.6 °C 55.4 °F /  13 °C 29.9in /  1010.8hPa Calm     96% 0in /  0.0mm 0 W/m2
05:13 56.3 °F /  13.5 °C 55.4 °F /  13 °C 29.9in /  1010.8hPa Calm     97% 0in /  0.0mm 0 W/m2
05:18 56.3 °F /  13.5 °C 55.4 °F /  13 °C 29.9in /  1010.8hPa Calm     97% 0in /  0.0mm 0 W/m2
05:23 56.1 °F /  13.4 °C 55.2 °F /  12.9 °C 29.9in /  1010.8hPa Calm     97% 0in /  0.0mm 0 W/m2
05:29 56.1 °F /  13.4 °C 55.2 °F /  12.9 °C 29.9in /  1010.8hPa Calm     97% 0in /  0.0mm 0 W/m2
05:34 56.1 °F /  13.4 °C 55.2 °F /  12.9 °C 29.9in /  1010.8hPa Calm     97% 0in /  0.0mm 0 W/m2
05:39 56.1 °F /  13.4 °C 55.2 °F /  12.9 °C 29.9in /  1010.8hPa Calm     97% 0in /  0.0mm 0 W/m2
05:44 56.3 °F /  13.5 °C 55.4 °F /  13 °C 29.9in /  1010.8hPa Calm     97% 0in /  0.0mm 5 W/m2
05:49 56.5 °F /  13.6 °C 55.6 °F /  13.1 °C 29.9in /  1010.8hPa Calm     97% 0in /  0.0mm 9 W/m2
05:54 56.5 °F /  13.6 °C 55.6 °F /  13.1 °C 29.9in /  1010.8hPa Calm     97% 0in /  0.0mm 12 W/m2
05:59 56.7 °F /  13.7 °C 55.8 °F /  13.2 °C 29.9in /  1010.8hPa Calm     97% 0in /  0.0mm 16 W/m2
06:04 56.7 °F /  13.7 °C 55.8 °F /  13.2 °C 29.9in /  1010.8hPa Calm     97% 0in /  0.0mm 25 W/m2
06:09 56.8 °F /  13.8 °C 55.9 °F /  13.3 °C 29.9in /  1010.8hPa Calm     97% 0in /  0.0mm 30 W/m2
06:14 56.8 °F /  13.8 °C 55.9 °F /  13.3 °C 29.9in /  1010.8hPa Calm     97% 0in /  0.0mm 40 W/m2
06:19 56.8 °F /  13.8 °C 55.9 °F /  13.3 °C 29.9in /  1010.8hPa Calm     97% 0in /  0.0mm 46 W/m2
06:24 57 °F /  13.9 °C 56.1 °F /  13.4 °C 29.9in /  1010.8hPa Calm     97% 0in /  0.0mm 51 W/m2
06:29 57 °F /  13.9 °C 56.1 °F /  13.4 °C 29.9in /  1010.8hPa Calm     97% 0in /  0.0mm 56 W/m2
06:34 57.4 °F /  14.1 °C 56.5 °F /  13.6 °C 29.9in /  1010.8hPa NNE 2mph /  3.2km/h 2mph /  3.2km/h 97% 0in /  0.0mm 65 W/m2
06:39 57.6 °F /  14.2 °C 56.7 °F /  13.7 °C 29.9in /  1010.8hPa Calm   1mph /  1.6km/h 97% 0in /  0.0mm 86 W/m2
06:44 57.7 °F /  14.3 °C 56.8 °F /  13.8 °C 29.9in /  1010.8hPa Calm   1mph /  1.6km/h 97% 0in /  0.0mm 104 W/m2
06:49 57.7 °F /  14.3 °C 56.8 °F /  13.8 °C 29.9in /  1010.8hPa Calm     97% 0in /  0.0mm 113 W/m2
06:54 58.1 °F /  14.5 °C 57.2 °F /  14 °C 29.9in /  1010.8hPa Calm   1mph /  1.6km/h 97% 0in /  0.0mm 127 W/m2
06:59 58.3 °F /  14.6 °C 57.4 °F /  14.1 °C 29.9in /  1010.8hPa Calm     97% 0in /  0.0mm 132 W/m2
07:04 58.6 °F /  14.8 °C 57.7 °F /  14.3 °C 29.9in /  1010.8hPa Calm   1mph /  1.6km/h 97% 0in /  0.0mm 137 W/m2
07:09 58.8 °F /  14.9 °C 57.9 °F /  14.4 °C 29.9in /  1010.8hPa ENE 0.9mph /  1.4km/h 2mph /  3.2km/h 97% 0in /  0.0mm 137 W/m2
07:14 59.2 °F /  15.1 °C 58.3 °F /  14.6 °C 29.9in /  1011.2hPa ENE 2mph /  3.2km/h 3mph /  4.8km/h 97% 0in /  0.0mm 120 W/m2
07:19 59.2 °F /  15.1 °C 58.3 °F /  14.6 °C 29.9in /  1010.8hPa NE 0.9mph /  1.4km/h 1mph /  1.6km/h 97% 0in /  0.0mm 111 W/m2
07:24 59.4 °F /  15.2 °C 58.5 °F /  14.7 °C 29.9in /  1010.8hPa NE 0.9mph /  1.4km/h 1mph /  1.6km/h 97% 0in /  0.0mm 98 W/m2
07:29 59.4 °F /  15.2 °C 58.5 °F /  14.7 °C 29.9in /  1011.2hPa Calm     97% 0in /  0.0mm 109 W/m2
07:34 59.5 °F /  15.3 °C 58.5 °F /  14.7 °C 29.9in /  1011.2hPa Calm   1mph /  1.6km/h 96% 0in /  0.0mm 141 W/m2
07:39 59.7 °F /  15.4 °C 58.6 °F /  14.8 °C 29.9in /  1011.2hPa ESE 0.9mph /  1.4km/h 3mph /  4.8km/h 96% 0in /  0.0mm 142 W/m2
07:44 60.1 °F /  15.6 °C 59 °F /  15 °C 29.9in /  1011.2hPa ESE 0.9mph /  1.4km/h 1mph /  1.6km/h 96% 0in /  0.0mm 176 W/m2
07:49 60.3 °F /  15.7 °C 59.2 °F /  15.1 °C 29.9in /  1011.2hPa ESE 0.9mph /  1.4km/h 1mph /  1.6km/h 96% 0in /  0.0mm 197 W/m2
07:54 60.6 °F /  15.9 °C 59.2 °F /  15.1 °C 29.9in /  1011.2hPa Calm     95% 0in /  0.0mm 206 W/m2
07:59 61 °F /  16.1 °C 59.5 °F /  15.3 °C 29.9in /  1011.2hPa East 0.9mph /  1.4km/h 2mph /  3.2km/h 95% 0in /  0.0mm 265 W/m2
08:04 61.5 °F /  16.4 °C 60.1 °F /  15.6 °C 29.9in /  1011.2hPa ENE 2mph /  3.2km/h 2mph /  3.2km/h 95% 0in /  0.0mm 279 W/m2
08:09 62.1 °F /  16.7 °C 60.3 °F /  15.7 °C 29.9in /  1011.2hPa Calm   3mph /  4.8km/h 94% 0in /  0.0mm 385 W/m2
08:14 62.8 °F /  17.1 °C 60.8 °F /  16 °C 29.9in /  1011.2hPa East 2.9mph /  4.7km/h 3mph /  4.8km/h 93% 0in /  0.0mm 353 W/m2
08:19 63.7 °F /  17.6 °C 61 °F /  16.1 °C 29.9in /  1011.2hPa Calm   2mph /  3.2km/h 91% 0in /  0.0mm 369 W/m2
08:24 63.9 °F /  17.7 °C 60.6 °F /  15.9 °C 29.9in /  1011.2hPa NW 0.9mph /  1.4km/h 2mph /  3.2km/h 89% 0in /  0.0mm 297 W/m2
08:29 63.9 °F /  17.7 °C 60.3 °F /  15.7 °C 29.9in /  1011.2hPa Calm   2mph /  3.2km/h 88% 0in /  0.0mm 436 W/m2
08:34 63.9 °F /  17.7 °C 60.6 °F /  15.9 °C 29.9in /  1011.2hPa Calm   1mph /  1.6km/h 89% 0in /  0.0mm 413 W/m2
08:39 64.2 °F /  17.9 °C 60.3 °F /  15.7 °C 29.9in /  1011.2hPa Calm   2mph /  3.2km/h 87% 0in /  0.0mm 295 W/m2
08:45 64.9 °F /  18.3 °C 61.3 °F /  16.3 °C 29.9in /  1011.2hPa NE 3mph /  4.8km/h 3mph /  4.8km/h 88% 0in /  0.0mm 487 W/m2
08:50 66 °F /  18.9 °C 61.7 °F /  16.5 °C 29.9in /  1011.2hPa Calm   2mph /  3.2km/h 86% 0in /  0.0mm 223 W/m2
08:55 66.4 °F /  19.1 °C 61 °F /  16.1 °C 29.9in /  1011.2hPa ENE 0.9mph /  1.4km/h 3mph /  4.8km/h 83% 0in /  0.0mm 195 W/m2
09:00 66.2 °F /  19 °C 60.8 °F /  16 °C 29.9in /  1011.2hPa NE 0.9mph /  1.4km/h 2mph /  3.2km/h 83% 0in /  0.0mm 264 W/m2
09:05 66.4 °F /  19.1 °C 61.3 °F /  16.3 °C 29.9in /  1011.2hPa ENE 2.9mph /  4.7km/h 3mph /  4.8km/h 84% 0in /  0.0mm 320 W/m2
09:10 66.2 °F /  19 °C 60.8 °F /  16 °C 29.9in /  1011.2hPa Calm   3mph /  4.8km/h 83% 0in /  0.0mm 302 W/m2
09:15 66.4 °F /  19.1 °C 61 °F /  16.1 °C 29.9in /  1011.2hPa Calm   1mph /  1.6km/h 83% 0in /  0.0mm 274 W/m2
09:20 66.4 °F /  19.1 °C 60.8 °F /  16 °C 29.9in /  1011.2hPa Calm   3mph /  4.8km/h 82% 0in /  0.0mm 258 W/m2
09:25 66.4 °F /  19.1 °C 60.8 °F /  16 °C 29.9in /  1011.2hPa Calm   1mph /  1.6km/h 82% 0in /  0.0mm 250 W/m2
09:30 66.6 °F /  19.2 °C 61 °F /  16.1 °C 29.9in /  1010.8hPa ENE 0.9mph /  1.4km/h 3mph /  4.8km/h 82% 0in /  0.0mm 278 W/m2
09:35 66.6 °F /  19.2 °C 60.6 °F /  15.9 °C 29.9in /  1010.8hPa NE 0.9mph /  1.4km/h 2mph /  3.2km/h 81% 0in /  0.0mm 278 W/m2
09:40 66.6 °F /  19.2 °C 61 °F /  16.1 °C 29.9in /  1010.8hPa ENE 0.9mph /  1.4km/h 1mph /  1.6km/h 82% 0in /  0.0mm 332 W/m2
09:45 66.7 °F /  19.3 °C 61 °F /  16.1 °C 29.9in /  1010.8hPa ESE 2mph /  3.2km/h 4mph /  6.4km/h 82% 0in /  0.0mm 244 W/m2
09:50 66.7 °F /  19.3 °C 60.8 °F /  16 °C 29.9in /  1010.8hPa East 0.9mph /  1.4km/h 3mph /  4.8km/h 81% 0in /  0.0mm 306 W/m2
09:55 66.7 °F /  19.3 °C 60.8 °F /  16 °C 29.9in /  1010.8hPa Calm   4mph /  6.4km/h 81% 0in /  0.0mm 311 W/m2
10:00 66.7 °F /  19.3 °C 60.8 °F /  16 °C 29.9in /  1010.8hPa Calm   1mph /  1.6km/h 81% 0in /  0.0mm 276 W/m2
10:05 66.9 °F /  19.4 °C 60.6 °F /  15.9 °C 29.9in /  1010.8hPa Calm   1mph /  1.6km/h 80% 0in /  0.0mm 251 W/m2
10:10 66.7 °F /  19.3 °C 60.8 °F /  16 °C 29.9in /  1010.8hPa ENE 0.9mph /  1.4km/h 2mph /  3.2km/h 81% 0in /  0.0mm 225 W/m2
10:15 66.7 °F /  19.3 °C 60.8 °F /  16 °C 29.9in /  1010.8hPa Calm   1mph /  1.6km/h 81% 0in /  0.0mm 234 W/m2
10:20 66.7 °F /  19.3 °C 61 °F /  16.1 °C 29.9in /  1010.8hPa NE 0.9mph /  1.4km/h 2mph /  3.2km/h 82% 0in /  0.0mm 216 W/m2
10:25 66.7 °F /  19.3 °C 60.8 °F /  16 °C 29.9in /  1010.8hPa Calm   3mph /  4.8km/h 81% 0in /  0.0mm 181 W/m2
10:30 66.7 °F /  19.3 °C 61 °F /  16.1 °C 29.9in /  1010.8hPa ENE 0.9mph /  1.4km/h 1mph /  1.6km/h 82% 0in /  0.0mm 200 W/m2
10:35 66.9 °F /  19.4 °C 61.2 °F /  16.2 °C 29.9in /  1010.8hPa Calm   2mph /  3.2km/h 82% 0in /  0.0mm 232 W/m2
10:40 66.9 °F /  19.4 °C 61 °F /  16.1 °C 29.9in /  1010.8hPa NE 0.9mph /  1.4km/h 1mph /  1.6km/h 81% 0in /  0.0mm 269 W/m2
10:45 66.9 °F /  19.4 °C 61 °F /  16.1 °C 29.8in /  1010.5hPa NE 0.9mph /  1.4km/h 2mph /  3.2km/h 81% 0in /  0.0mm 327 W/m2
10:50 67.3 °F /  19.6 °C 61.5 °F /  16.4 °C 29.8in /  1010.5hPa Calm   3mph /  4.8km/h 82% 0in /  0.0mm 320 W/m2
10:55 67.5 °F /  19.7 °C 61.7 °F /  16.5 °C 29.8in /  1010.5hPa Calm   3mph /  4.8km/h 82% 0in /  0.0mm 320 W/m2
11:00 67.5 °F /  19.7 °C 61.7 °F /  16.5 °C 29.8in /  1010.5hPa Calm     82% 0in /  0.0mm 292 W/m2
11:05 67.6 °F /  19.8 °C 61.9 °F /  16.6 °C 29.8in /  1010.5hPa East 0.9mph /  1.4km/h 3mph /  4.8km/h 82% 0in /  0.0mm 260 W/m2
11:11 67.5 °F /  19.7 °C 61.3 °F /  16.3 °C 29.8in /  1010.5hPa ENE 2mph /  3.2km/h 2mph /  3.2km/h 81% 0in /  0.0mm 237 W/m2
11:16 67.5 °F /  19.7 °C 61.7 °F /  16.5 °C 29.8in /  1010.5hPa NNE 0.9mph /  1.4km/h 3mph /  4.8km/h 82% 0in /  0.0mm 186 W/m2
11:21 67.3 °F /  19.6 °C 61.9 °F /  16.6 °C 29.8in /  1010.5hPa SE 2mph /  3.2km/h 2mph /  3.2km/h 83% 0in /  0.0mm 190 W/m2
11:26 66.9 °F /  19.4 °C 61.5 °F /  16.4 °C 29.8in /  1010.5hPa Calm   3mph /  4.8km/h 83% 0in /  0.0mm 218 W/m2
11:31 66.7 °F /  19.3 °C 61.7 °F /  16.5 °C 29.9in /  1010.8hPa NE 2.9mph /  4.7km/h 3mph /  4.8km/h 84% 0in /  0.0mm 204 W/m2
11:36 66.7 °F /  19.3 °C 62.1 °F /  16.7 °C 29.8in /  1010.5hPa Calm   5mph /  8km/h 85% 0in /  0.0mm 193 W/m2
11:41 66.4 °F /  19.1 °C 61.7 °F /  16.5 °C 29.8in /  1010.5hPa ENE 2mph /  3.2km/h 3mph /  4.8km/h 85% 0in /  0.0mm 188 W/m2
11:46 66 °F /  18.9 °C 61.3 °F /  16.3 °C 29.8in /  1010.5hPa NE 0.9mph /  1.4km/h 4mph /  6.4km/h 85% 0.01in /  0.2mm 200 W/m2
11:51 65.8 °F /  18.8 °C 61.9 °F /  16.6 °C 29.8in /  1010.5hPa East 2mph /  3.2km/h 3mph /  4.8km/h 87% 0.01in /  0.2mm 183 W/m2
11:56 65.7 °F /  18.7 °C 62.1 °F /  16.7 °C 29.9in /  1010.8hPa Calm   3mph /  4.8km/h 88% 0.01in /  0.2mm 158 W/m2
12:01 65.5 °F /  18.6 °C 61.9 °F /  16.6 °C 29.9in /  1010.8hPa ENE 0.9mph /  1.4km/h 2mph /  3.2km/h 88% 0.01in /  0.2mm 186 W/m2
12:06 65.3 °F /  18.5 °C 61.7 °F /  16.5 °C 29.9in /  1010.8hPa Calm   2mph /  3.2km/h 88% 0.01in /  0.2mm 186 W/m2
12:11 65.3 °F /  18.5 °C 61.7 °F /  16.5 °C 29.9in /  1010.8hPa SE 2mph /  3.2km/h 2mph /  3.2km/h 88% 0.02in /  0.5mm 197 W/m2
12:16 65.1 °F /  18.4 °C 61.5 °F /  16.4 °C 29.9in /  1010.8hPa SE 0.9mph /  1.4km/h 3mph /  4.8km/h 88% 0.02in /  0.5mm 186 W/m2
12:21 65.1 °F /  18.4 °C 61.5 °F /  16.4 °C 29.9in /  1010.8hPa East 0.9mph /  1.4km/h 2mph /  3.2km/h 88% 0.02in /  0.5mm 186 W/m2
12:26 65.1 °F /  18.4 °C 61.5 °F /  16.4 °C 29.9in /  1010.8hPa Calm   1mph /  1.6km/h 88% 0.02in /  0.5mm 202 W/m2
12:31 65.1 °F /  18.4 °C 61.5 °F /  16.4 °C 29.8in /  1010.5hPa Calm     88% 0.02in /  0.5mm 188 W/m2
12:36 65.5 °F /  18.6 °C 61.9 °F /  16.6 °C 29.9in /  1010.8hPa Calm     88% 0.02in /  0.5mm 172 W/m2
12:41 65.7 °F /  18.7 °C 62.2 °F /  16.8 °C 29.9in /  1010.8hPa Calm     89% 0.03in /  0.8mm 171 W/m2
12:46 65.7 °F /  18.7 °C 62.1 °F /  16.7 °C 29.9in /  1010.8hPa Calm     88% 0.02in /  0.5mm 163 W/m2
12:52 65.7 °F /  18.7 °C 62.1 °F /  16.7 °C 29.9in /  1010.8hPa Calm     88% 0.03in /  0.8mm 144 W/m2
12:57 65.7 °F /  18.7 °C 62.2 °F /  16.8 °C 29.9in /  1010.8hPa Calm   1mph /  1.6km/h 89% 0.03in /  0.8mm 146 W/m2
13:02 65.1 °F /  18.4 °C 61.5 °F /  16.4 °C 29.9in /  1010.8hPa West 0.9mph /  1.4km/h 4mph /  6.4km/h 88% 0.04in /  1.0mm 125 W/m2
13:07 64.6 °F /  18.1 °C 61 °F /  16.1 °C 29.9in /  1010.8hPa WSW 2mph /  3.2km/h 2mph /  3.2km/h 88% 0.04in /  1.0mm 116 W/m2
13:12 63.9 °F /  17.7 °C 60.6 °F /  15.9 °C 29.9in /  1010.8hPa WSW 2.9mph /  4.7km/h 6mph /  9.7km/h 89% 0.03in /  0.8mm 105 W/m2
13:17 63.1 °F /  17.3 °C 59.9 °F /  15.5 °C 29.9in /  1010.8hPa SW 4.9mph /  7.9km/h 6mph /  9.7km/h 89% 0.03in /  0.8mm 111 W/m2
13:22 62.6 °F /  17 °C 59.4 °F /  15.2 °C 29.9in /  1010.8hPa NW 2mph /  3.2km/h 9mph /  14.5km/h 89% 0.04in /  1.0mm 113 W/m2
13:27 61.9 °F /  16.6 °C 59 °F /  15 °C 29.9in /  1010.8hPa West 2.9mph /  4.7km/h 10mph /  16.1km/h 90% 0.04in /  1.0mm 111 W/m2
13:32 61.3 °F /  16.3 °C 58.6 °F /  14.8 °C 29.9in /  1010.8hPa West 4mph /  6.4km/h 5mph /  8km/h 91% 0.04in /  1.0mm 109 W/m2
13:37 61 °F /  16.1 °C 58.3 °F /  14.6 °C 29.8in /  1010.5hPa West 2.9mph /  4.7km/h 8mph /  12.9km/h 91% 0.04in /  1.0mm 111 W/m2
13:42 60.8 °F /  16 °C 58.1 °F /  14.5 °C 29.8in /  1010.5hPa WNW 2mph /  3.2km/h 10mph /  16.1km/h 91% 0.04in /  1.0mm 135 W/m2
13:47 60.6 °F /  15.9 °C 57.9 °F /  14.4 °C 29.8in /  1010.5hPa West 6mph /  9.7km/h 10mph /  16.1km/h 91% 0.03in /  0.8mm 158 W/m2
13:52 60.6 °F /  15.9 °C 57.9 °F /  14.4 °C 29.8in /  1010.5hPa West 2.9mph /  4.7km/h 7mph /  11.3km/h 91% 0.04in /  1.0mm 151 W/m2
13:57 60.6 °F /  15.9 °C 58.3 °F /  14.6 °C 29.8in /  1010.5hPa WSW 4mph /  6.4km/h 7mph /  11.3km/h 92% 0.04in /  1.0mm 137 W/m2
14:02 60.6 °F /  15.9 °C 58.3 °F /  14.6 °C 29.8in /  1010.5hPa West 4mph /  6.4km/h 8mph /  12.9km/h 92% 0.03in /  0.8mm 125 W/m2
14:07 60.6 °F /  15.9 °C 58.6 °F /  14.8 °C 29.8in /  1010.5hPa West 4mph /  6.4km/h 10mph /  16.1km/h 93% 0.04in /  1.0mm 104 W/m2
14:12 60.4 °F /  15.8 °C 58.5 °F /  14.7 °C 29.8in /  1010.5hPa West 4mph /  6.4km/h 8mph /  12.9km/h 93% 0.04in /  1.0mm 95 W/m2
14:17 60.4 °F /  15.8 °C 58.5 °F /  14.7 °C 29.8in /  1010.2hPa NW 6mph /  9.7km/h 8mph /  12.9km/h 93% 0.04in /  1.0mm 91 W/m2
14:22 60.4 °F /  15.8 °C 58.5 °F /  14.7 °C 29.8in /  1010.2hPa West 2.9mph /  4.7km/h 8mph /  12.9km/h 93% 0.03in /  0.8mm 109 W/m2
14:27 60.4 °F /  15.8 °C 58.5 °F /  14.7 °C 29.8in /  1010.2hPa WSW 8.1mph /  13km/h 13mph /  20.9km/h 93% 0.03in /  0.8mm 120 W/m2
14:32 60.6 °F /  15.9 °C 58.6 °F /  14.8 °C 29.8in /  1010.2hPa West 4mph /  6.4km/h 7mph /  11.3km/h 93% 0.02in /  0.5mm 121 W/m2
14:37 60.6 °F /  15.9 °C 58.6 °F /  14.8 °C 29.8in /  1010.2hPa WSW 6.9mph /  11.1km/h 14mph /  22.5km/h 93% 0.02in /  0.5mm 146 W/m2
14:42 60.6 °F /  15.9 °C 58.3 °F /  14.6 °C 29.8in /  1010.2hPa WNW 8.1mph /  13km/h 8mph /  12.9km/h 92% 0.02in /  0.5mm 134 W/m2
14:47 61 °F /  16.1 °C 59 °F /  15 °C 29.8in /  1010.2hPa West 6mph /  9.7km/h 14mph /  22.5km/h 93% 0.02in /  0.5mm 179 W/m2
14:52 61 °F /  16.1 °C 59 °F /  15 °C 29.8in /  1010.2hPa NW 2.9mph /  4.7km/h 10mph /  16.1km/h 93% 0.01in /  0.2mm 209 W/m2
14:57 61.2 °F /  16.2 °C 59.2 °F /  15.1 °C 29.8in /  1010.2hPa West 6.9mph /  11.1km/h 12mph /  19.3km/h 93% 0.01in /  0.2mm 197 W/m2
15:02 61.3 °F /  16.3 °C 59.4 °F /  15.2 °C 29.8in /  1010.2hPa WNW 4mph /  6.4km/h 9mph /  14.5km/h 93% 0.02in /  0.5mm 130 W/m2
15:07 61.3 °F /  16.3 °C 59.4 °F /  15.2 °C 29.8in /  1010.2hPa WSW 6.9mph /  11.1km/h 12mph /  19.3km/h 93% 0.01in /  0.2mm 93 W/m2
15:12 61.2 °F /  16.2 °C 59.2 °F /  15.1 °C 29.8in /  1010.2hPa WNW 8.1mph /  13km/h 13mph /  20.9km/h 93% 0.01in /  0.2mm 111 W/m2
15:17 61 °F /  16.1 °C 58.6 °F /  14.8 °C 29.8in /  1010.2hPa West 6mph /  9.7km/h 14mph /  22.5km/h 92% 0.01in /  0.2mm 105 W/m2
15:22 61 °F /  16.1 °C 58.6 °F /  14.8 °C 29.8in /  1010.2hPa West 8.1mph /  13km/h 12mph /  19.3km/h 92% 0.01in /  0.2mm 62 W/m2
15:27 60.8 °F /  16 °C 58.5 °F /  14.7 °C 29.8in /  1010.2hPa West 6mph /  9.7km/h 13mph /  20.9km/h 92% 0.01in /  0.2mm 35 W/m2
15:32 60.6 °F /  15.9 °C 58.3 °F /  14.6 °C 29.8in /  1010.2hPa WNW 8.9mph /  14.3km/h 12mph /  19.3km/h 92% 0.01in /  0.2mm 42 W/m2
15:37 60.3 °F /  15.7 °C 57.9 °F /  14.4 °C 29.8in /  1010.2hPa WSW 8.9mph /  14.3km/h 12mph /  19.3km/h 92% 0.01in /  0.2mm 39 W/m2
15:42 60.1 °F /  15.6 °C 57.7 °F /  14.3 °C 29.8in /  1010.2hPa West 6mph /  9.7km/h 11mph /  17.7km/h 92% 0.01in /  0.2mm 42 W/m2
15:47 59.9 °F /  15.5 °C 57.6 °F /  14.2 °C 29.8in /  1010.2hPa WNW 8.9mph /  14.3km/h 12mph /  19.3km/h 92% 0.01in /  0.2mm 42 W/m2
15:52 59.9 °F /  15.5 °C 57.9 °F /  14.4 °C 29.8in /  1010.5hPa West 2.9mph /  4.7km/h 11mph /  17.7km/h 93% 0.01in /  0.2mm 46 W/m2
15:57 59.9 °F /  15.5 °C 57.9 °F /  14.4 °C 29.8in /  1010.2hPa West 4mph /  6.4km/h 9mph /  14.5km/h 93% 0.02in /  0.5mm 62 W/m2
16:02 59.9 °F /  15.5 °C 57.9 °F /  14.4 °C 29.8in /  1010.2hPa West 2.9mph /  4.7km/h 8mph /  12.9km/h 93% 0.02in /  0.5mm 63 W/m2
16:08 59.9 °F /  15.5 °C 57.9 °F /  14.4 °C 29.8in /  1010.5hPa NW 2mph /  3.2km/h 8mph /  12.9km/h 93% 0.04in /  1.0mm 54 W/m2
16:13 59.7 °F /  15.4 °C 57.9 °F /  14.4 °C 29.8in /  1010.5hPa West 6.9mph /  11.1km/h 12mph /  19.3km/h 94% 0.06in /  1.5mm 63 W/m2
16:18 59.7 °F /  15.4 °C 57.9 °F /  14.4 °C 29.8in /  1010.5hPa WSW 4mph /  6.4km/h 9mph /  14.5km/h 94% 0.07in /  1.8mm 46 W/m2
16:23 59.5 °F /  15.3 °C 57.7 °F /  14.3 °C 29.8in /  1010.5hPa WNW 10.1mph /  16.3km/h 12mph /  19.3km/h 94% 0.08in /  2.0mm 32 W/m2
16:28 59.4 °F /  15.2 °C 57.6 °F /  14.2 °C 29.8in /  1010.5hPa West 6.9mph /  11.1km/h 14mph /  22.5km/h 94% 0.09in /  2.3mm 47 W/m2
16:33 59 °F /  15 °C 57 °F /  13.9 °C 29.8in /  1010.5hPa West 10.1mph /  16.3km/h 10mph /  16.1km/h 93% 0.09in /  2.3mm 46 W/m2
16:38 58.8 °F /  14.9 °C 57 °F /  13.9 °C 29.8in /  1010.5hPa SW 12mph /  19.3km/h 12mph /  19.3km/h 94% 0.1in /  2.5mm 46 W/m2
16:43 58.6 °F /  14.8 °C 56.8 °F /  13.8 °C 29.8in /  1010.5hPa West 8.9mph /  14.3km/h 15mph /  24.1km/h 94% 0.13in /  3.3mm 63 W/m2
16:48 58.5 °F /  14.7 °C 56.7 °F /  13.7 °C 29.8in /  1010.5hPa West 6mph /  9.7km/h 11mph /  17.7km/h 94% 0.13in /  3.3mm 67 W/m2
16:53 58.5 °F /  14.7 °C 56.7 °F /  13.7 °C 29.8in /  1010.5hPa WSW 4mph /  6.4km/h 14mph /  22.5km/h 94% 0.14in /  3.6mm 74 W/m2
16:58 58.5 °F /  14.7 °C 56.7 °F /  13.7 °C 29.8in /  1010.5hPa WNW 8.9mph /  14.3km/h 12mph /  19.3km/h 94% 0.14in /  3.6mm 76 W/m2
17:03 58.5 °F /  14.7 °C 56.7 °F /  13.7 °C 29.8in /  1010.5hPa West 10.1mph /  16.3km/h 13mph /  20.9km/h 94% 0.13in /  3.3mm 79 W/m2
17:08 58.5 °F /  14.7 °C 56.7 °F /  13.7 °C 29.8in /  1010.5hPa West 11mph /  17.7km/h 11mph /  17.7km/h 94% 0.12in /  3.0mm 79 W/m2
17:13 58.5 °F /  14.7 °C 56.7 °F /  13.7 °C 29.8in /  1010.2hPa WNW 8.9mph /  14.3km/h 9mph /  14.5km/h 94% 0.11in /  2.8mm 83 W/m2
17:18 58.5 °F /  14.7 °C 56.7 °F /  13.7 °C 29.8in /  1010.2hPa West 4mph /  6.4km/h 12mph /  19.3km/h 94% 0.1in /  2.5mm 70 W/m2
17:23 58.5 °F /  14.7 °C 56.7 °F /  13.7 °C 29.8in /  1010.2hPa WNW 4mph /  6.4km/h 13mph /  20.9km/h 94% 0.09in /  2.3mm 46 W/m2
17:28 58.5 °F /  14.7 °C 56.7 °F /  13.7 °C 29.8in /  1010.2hPa WSW 4.9mph /  7.9km/h 9mph /  14.5km/h 94% 0.09in /  2.3mm 40 W/m2
17:34 58.5 °F /  14.7 °C 56.7 °F /  13.7 °C 29.8in /  1010.5hPa WSW 6.9mph /  11.1km/h 13mph /  20.9km/h 94% 0.09in /  2.3mm 42 W/m2
17:39 58.5 °F /  14.7 °C 56.7 °F /  13.7 °C 29.8in /  1010.5hPa West 8.9mph /  14.3km/h 10mph /  16.1km/h 94% 0.08in /  2.0mm 46 W/m2
17:44 58.5 °F /  14.7 °C 56.7 °F /  13.7 °C 29.8in /  1010.5hPa WSW 4mph /  6.4km/h 13mph /  20.9km/h 94% 0.08in /  2.0mm 42 W/m2
17:49 58.5 °F /  14.7 °C 56.7 °F /  13.7 °C 29.8in /  1010.5hPa WSW 4.9mph /  7.9km/h 7mph /  11.3km/h 94% 0.09in /  2.3mm 37 W/m2
17:54 58.5 °F /  14.7 °C 56.7 °F /  13.7 °C 29.9in /  1010.8hPa WNW 2mph /  3.2km/h 4mph /  6.4km/h 94% 0.09in /  2.3mm 35 W/m2
17:59 58.5 °F /  14.7 °C 56.7 °F /  13.7 °C 29.9in /  1010.8hPa NW 4mph /  6.4km/h 5mph /  8km/h 94% 0.09in /  2.3mm 35 W/m2
18:04 58.5 °F /  14.7 °C 56.7 °F /  13.7 °C 29.9in /  1010.8hPa WNW 2.9mph /  4.7km/h 7mph /  11.3km/h 94% 0.09in /  2.3mm 37 W/m2
18:09 58.5 °F /  14.7 °C 57 °F /  13.9 °C 29.9in /  1010.8hPa WNW 4mph /  6.4km/h 6mph /  9.7km/h 95% 0.11in /  2.8mm 35 W/m2
18:14 58.5 °F /  14.7 °C 57 °F /  13.9 °C 29.9in /  1010.8hPa WSW 4mph /  6.4km/h 8mph /  12.9km/h 95% 0.11in /  2.8mm 32 W/m2
18:19 58.5 °F /  14.7 °C 57 °F /  13.9 °C 29.9in /  1010.8hPa WSW 6mph /  9.7km/h 9mph /  14.5km/h 95% 0.12in /  3.0mm 33 W/m2
18:24 58.5 °F /  14.7 °C 57 °F /  13.9 °C 29.9in /  1010.8hPa West 6mph /  9.7km/h 8mph /  12.9km/h 95% 0.13in /  3.3mm 39 W/m2
18:29 58.5 °F /  14.7 °C 57 °F /  13.9 °C 29.9in /  1010.8hPa West 2.9mph /  4.7km/h 6mph /  9.7km/h 95% 0.14in /  3.6mm 35 W/m2
18:34 58.5 °F /  14.7 °C 57 °F /  13.9 °C 29.9in /  1010.8hPa West 2.9mph /  4.7km/h 4mph /  6.4km/h 95% 0.15in /  3.8mm 35 W/m2
18:39 58.5 °F /  14.7 °C 57 °F /  13.9 °C 29.9in /  1010.8hPa NW 0.9mph /  1.4km/h 5mph /  8km/h 95% 0.16in /  4.1mm 35 W/m2
18:45 58.5 °F /  14.7 °C 56.7 °F /  13.7 °C 29.9in /  1010.8hPa WNW 2.9mph /  4.7km/h 6mph /  9.7km/h 94% 0.16in /  4.1mm 37 W/m2
18:50 58.3 °F /  14.6 °C 56.5 °F /  13.6 °C 29.9in /  1010.8hPa West 4mph /  6.4km/h 6mph /  9.7km/h 94% 0.15in /  3.8mm 35 W/m2
18:55 58.3 °F /  14.6 °C 56.5 °F /  13.6 °C 29.9in /  1010.8hPa West 2.9mph /  4.7km/h 7mph /  11.3km/h 94% 0.14in /  3.6mm 37 W/m2
19:00 58.3 °F /  14.6 °C 56.5 °F /  13.6 °C 29.9in /  1010.8hPa WSW 0.9mph /  1.4km/h 4mph /  6.4km/h 94% 0.14in /  3.6mm 37 W/m2
19:05 58.3 °F /  14.6 °C 56.5 °F /  13.6 °C 29.9in /  1010.8hPa WNW 2.9mph /  4.7km/h 7mph /  11.3km/h 94% 0.14in /  3.6mm 35 W/m2
19:10 58.3 °F /  14.6 °C 56.5 °F /  13.6 °C 29.9in /  1010.8hPa West 4mph /  6.4km/h 7mph /  11.3km/h 94% 0.13in /  3.3mm 35 W/m2
19:15 58.1 °F /  14.5 °C 56.3 °F /  13.5 °C 29.9in /  1010.8hPa WNW 4mph /  6.4km/h 7mph /  11.3km/h 94% 0.13in /  3.3mm 37 W/m2
19:20 58.3 °F /  14.6 °C 56.5 °F /  13.6 °C 29.9in /  1010.8hPa WSW 2.9mph /  4.7km/h 4mph /  6.4km/h 94% 0.12in /  3.0mm 39 W/m2
19:25 58.3 °F /  14.6 °C 56.5 °F /  13.6 °C 29.8in /  1010.5hPa West 4mph /  6.4km/h 6mph /  9.7km/h 94% 0.1in /  2.5mm 40 W/m2
19:30 58.3 °F /  14.6 °C 56.8 °F /  13.8 °C 29.8in /  1010.5hPa West 2.9mph /  4.7km/h 6mph /  9.7km/h 95% 0.09in /  2.3mm 40 W/m2
19:35 58.3 °F /  14.6 °C 56.8 °F /  13.8 °C 29.8in /  1010.5hPa WNW 2.9mph /  4.7km/h 4mph /  6.4km/h 95% 0.09in /  2.3mm 39 W/m2
19:40 58.3 °F /  14.6 °C 56.8 °F /  13.8 °C 29.8in /  1010.5hPa West 2.9mph /  4.7km/h 4mph /  6.4km/h 95% 0.07in /  1.8mm 42 W/m2
19:45 58.3 °F /  14.6 °C 56.8 °F /  13.8 °C 29.8in /  1010.5hPa West 2mph /  3.2km/h 5mph /  8km/h 95% 0.07in /  1.8mm 44 W/m2
19:50 58.3 °F /  14.6 °C 56.8 °F /  13.8 °C 29.8in /  1010.5hPa WNW 2.9mph /  4.7km/h 4mph /  6.4km/h 95% 0.06in /  1.5mm 39 W/m2
19:55 58.3 °F /  14.6 °C 56.8 °F /  13.8 °C 29.8in /  1010.5hPa West 4mph /  6.4km/h 4mph /  6.4km/h 95% 0.06in /  1.5mm 35 W/m2
20:00 58.3 °F /  14.6 °C 56.8 °F /  13.8 °C 29.8in /  1010.5hPa WNW 2mph /  3.2km/h 6mph /  9.7km/h 95% 0.06in /  1.5mm 33 W/m2
20:05 58.1 °F /  14.5 °C 56.3 °F /  13.5 °C 29.8in /  1010.5hPa West 4mph /  6.4km/h 4mph /  6.4km/h 94% 0.05in /  1.3mm 30 W/m2
20:10 57.9 °F /  14.4 °C 56.1 °F /  13.4 °C 29.8in /  1010.5hPa WNW 0.9mph /  1.4km/h 4mph /  6.4km/h 94% 0.05in /  1.3mm 26 W/m2
20:15 57.9 °F /  14.4 °C 56.1 °F /  13.4 °C 29.8in /  1010.5hPa Calm   3mph /  4.8km/h 94% 0.05in /  1.3mm 26 W/m2
20:20 57.9 °F /  14.4 °C 56.1 °F /  13.4 °C 29.9in /  1010.8hPa WNW 2.9mph /  4.7km/h 4mph /  6.4km/h 94% 0.04in /  1.0mm 26 W/m2
20:25 57.9 °F /  14.4 °C 56.1 °F /  13.4 °C 29.8in /  1010.5hPa SW 4mph /  6.4km/h 7mph /  11.3km/h 94% 0.03in /  0.8mm 26 W/m2
20:35 57.7 °F /  14.3 °C 55.9 °F /  13.3 °C 29.8in /  1010.5hPa WNW 2mph /  3.2km/h 5mph /  8km/h 94% 0.02in /  0.5mm 33 W/m2
20:40 57.7 °F /  14.3 °C 55.9 °F /  13.3 °C 29.8in /  1010.5hPa WSW 2mph /  3.2km/h 2mph /  3.2km/h 94% 0.02in /  0.5mm 35 W/m2
20:45 57.7 °F /  14.3 °C 55.9 °F /  13.3 °C 29.8in /  1010.5hPa WNW 4mph /  6.4km/h 6mph /  9.7km/h 94% 0.02in /  0.5mm 35 W/m2
20:50 57.7 °F /  14.3 °C 55.9 °F /  13.3 °C 29.8in /  1010.5hPa West 2mph /  3.2km/h 5mph /  8km/h 94% 0.02in /  0.5mm 30 W/m2
20:55 57.6 °F /  14.2 °C 55.8 °F /  13.2 °C 29.9in /  1010.8hPa West 2mph /  3.2km/h 4mph /  6.4km/h 94% 0.02in /  0.5mm 21 W/m2
21:00 57.6 °F /  14.2 °C 55.8 °F /  13.2 °C 29.9in /  1010.8hPa SW 4.9mph /  7.9km/h 6mph /  9.7km/h 94% 0.02in /  0.5mm 16 W/m2
21:05 57.6 °F /  14.2 °C 55.8 °F /  13.2 °C 29.9in /  1010.8hPa WSW 4mph /  6.4km/h 4mph /  6.4km/h 94% 0.02in /  0.5mm 11 W/m2
21:11 57.4 °F /  14.1 °C 55.6 °F /  13.1 °C 29.9in /  1010.8hPa West 2mph /  3.2km/h 2mph /  3.2km/h 94% 0.01in /  0.2mm 9 W/m2
21:16 57.4 °F /  14.1 °C 55.6 °F /  13.1 °C 29.9in /  1010.8hPa NW 2.9mph /  4.7km/h 4mph /  6.4km/h 94% 0.01in /  0.2mm 7 W/m2
21:21 57.4 °F /  14.1 °C 55.6 °F /  13.1 °C 29.9in /  1010.8hPa NW 2mph /  3.2km/h 2mph /  3.2km/h 94% 0.01in /  0.2mm 5 W/m2
21:26 57.4 °F /  14.1 °C 55.6 °F /  13.1 °C 29.9in /  1010.8hPa WSW 0.9mph /  1.4km/h 3mph /  4.8km/h 94% 0.01in /  0.2mm 5 W/m2
21:31 57.4 °F /  14.1 °C 55.6 °F /  13.1 °C 29.9in /  1010.8hPa WSW 0.9mph /  1.4km/h 1mph /  1.6km/h 94% 0.01in /  0.2mm 0 W/m2
21:36 57.2 °F /  14 °C 55.4 °F /  13 °C 29.9in /  1010.8hPa Calm   2mph /  3.2km/h 94% 0.01in /  0.2mm 0 W/m2
21:41 57 °F /  13.9 °C 55.2 °F /  12.9 °C 29.9in /  1010.8hPa Calm   2mph /  3.2km/h 94% 0.01in /  0.2mm 0 W/m2
21:46 56.8 °F /  13.8 °C 55.2 °F /  12.9 °C 29.9in /  1010.8hPa ESE 0.9mph /  1.4km/h 1mph /  1.6km/h 94% 0.01in /  0.2mm 0 W/m2
21:51 56.8 °F /  13.8 °C 55.4 °F /  13 °C 29.9in /  1011.2hPa Calm   1mph /  1.6km/h 95% 0in /  0.0mm 0 W/m2
21:56 56.8 °F /  13.8 °C 55.4 °F /  13 °C 29.9in /  1011.2hPa Calm   1mph /  1.6km/h 95% 0in /  0.0mm 0 W/m2
22:01 56.8 °F /  13.8 °C 55.2 °F /  12.9 °C 29.9in /  1011.2hPa Calm     94% 0in /  0.0mm 0 W/m2
22:06 56.7 °F /  13.7 °C 55.2 °F /  12.9 °C 29.9in /  1011.2hPa Calm     95% 0in /  0.0mm 0 W/m2
22:11 56.7 °F /  13.7 °C 55.2 °F /  12.9 °C 29.9in /  1011.2hPa Calm     95% 0in /  0.0mm 0 W/m2
22:16 56.7 °F /  13.7 °C 55.2 °F /  12.9 °C 29.9in /  1011.5hPa Calm     95% 0in /  0.0mm 0 W/m2
22:21 56.5 °F /  13.6 °C 55 °F /  12.8 °C 29.9in /  1011.5hPa Calm     95% 0in /  0.0mm 0 W/m2
22:26 56.5 °F /  13.6 °C 55 °F /  12.8 °C 29.9in /  1011.5hPa Calm     95% 0in /  0.0mm 0 W/m2
22:31 56.5 °F /  13.6 °C 55 °F /  12.8 °C 29.9in /  1011.5hPa Calm   2mph /  3.2km/h 95% 0in /  0.0mm 0 W/m2
22:36 56.1 °F /  13.4 °C 54.7 °F /  12.6 °C 29.9in /  1011.5hPa West 0.9mph /  1.4km/h 1mph /  1.6km/h 95% 0in /  0.0mm 0 W/m2
22:42 56.1 °F /  13.4 °C 54.7 °F /  12.6 °C 29.9in /  1011.5hPa Calm     95% 0in /  0.0mm 0 W/m2
22:47 56.1 °F /  13.4 °C 54.7 °F /  12.6 °C 29.9in /  1011.9hPa Calm     95% 0in /  0.0mm 0 W/m2
22:52 55.9 °F /  13.3 °C 54.5 °F /  12.5 °C 29.9in /  1011.9hPa NW 0.9mph /  1.4km/h 3mph /  4.8km/h 95% 0in /  0.0mm 0 W/m2
22:57 55.9 °F /  13.3 °C 54.5 °F /  12.5 °C 29.9in /  1011.9hPa Calm     95% 0in /  0.0mm 0 W/m2
23:02 55.9 °F /  13.3 °C 54.5 °F /  12.5 °C 29.9in /  1011.9hPa Calm   1mph /  1.6km/h 95% 0in /  0.0mm 0 W/m2
23:07 55.9 °F /  13.3 °C 54.5 °F /  12.5 °C 29.9in /  1011.9hPa Calm     95% 0in /  0.0mm 0 W/m2
23:12 55.9 °F /  13.3 °C 54.5 °F /  12.5 °C 29.9in /  1011.9hPa Calm     95% 0in /  0.0mm 0 W/m2
23:17 55.9 °F /  13.3 °C 54.5 °F /  12.5 °C 29.9in /  1011.9hPa Calm     95% 0in /  0.0mm 0 W/m2
23:22 55.9 °F /  13.3 °C 54.5 °F /  12.5 °C 29.9in /  1011.9hPa Calm   2mph /  3.2km/h 95% 0in /  0.0mm 0 W/m2
23:32 55.9 °F /  13.3 °C 54.5 °F /  12.5 °C 29.9in /  1011.9hPa SSW 2mph /  3.2km/h 2mph /  3.2km/h 95% 0in /  0.0mm 0 W/m2
23:37 55.9 °F /  13.3 °C 54.9 °F /  12.7 °C 29.9in /  1011.9hPa WSW 0.9mph /  1.4km/h 2mph /  3.2km/h 96% 0in /  0.0mm 0 W/m2
23:42 55.9 °F /  13.3 °C 54.9 °F /  12.7 °C 29.9in /  1011.9hPa Calm   1mph /  1.6km/h 96% 0in /  0.0mm 0 W/m2
23:47 55.9 °F /  13.3 °C 54.5 °F /  12.5 °C 29.9in /  1011.9hPa WSW 0.9mph /  1.4km/h 2mph /  3.2km/h 95% 0in /  0.0mm 0 W/m2
23:52 55.9 °F /  13.3 °C 54.5 °F /  12.5 °C 29.9in /  1011.9hPa Calm   2mph /  3.2km/h 95% 0in /  0.0mm 0 W/m2
23:57 55.9 °F /  13.3 °C 54.9 °F /  12.7 °C 29.9in /  1011.9hPa Calm   1mph /  1.6km/h 96% 0in /  0.0mm 0 W/m2
Juneau County Weather
Compliments of Weather Underground - 4 mb